Time;durP1;ratioP1;P1;durP2;ratioP2;P2;SDS_P1;SDS_P2;PMS_P1;PMS_P2;Temp;Humidity;BMP_temperature;BMP_pressure;BME280_temperature;BME280_humidity;BME280_pressure;Samples;Min_cycle;Max_cycle;Signal;HPM_P1;HPM_P2
2023/03/16 00:00:51;;;;;;;9.77;7.40;;;1.70;1.00;;;;;;5033998;28;20439;-70
2023/03/16 00:03:20;;;;;;;12.80;8.57;;;1.40;1.00;;;;;;5044803;28;20205;-70
2023/03/16 00:05:50;;;;;;;18.57;11.20;;;1.60;1.00;;;;;;5050058;28;20658;-70
2023/03/16 00:08:17;;;;;;;13.93;9.33;;;1.60;1.80;;;;;;5044575;28;20446;-72
2023/03/16 00:10:45;;;;;;;17.00;10.70;;;1.80;4.90;;;;;;5041923;28;20471;-70
2023/03/16 00:13:22;;;;;;;15.40;10.13;;;2.00;5.80;;;;;;5039847;28;20440;-70
2023/03/16 00:15:59;;;;;;;16.93;10.50;;;2.10;3.80;;;;;;5046344;28;20462;-70
2023/03/16 00:18:27;;;;;;;16.40;10.60;;;2.00;5.20;;;;;;5046766;28;20516;-70
2023/03/16 00:20:58;;;;;;;21.97;13.47;;;2.10;5.40;;;;;;5044112;28;20454;-70
2023/03/16 00:23:27;;;;;;;25.83;15.03;;;2.20;5.00;;;;;;5049052;28;20459;-72
2023/03/16 00:25:54;;;;;;;23.57;13.53;;;2.20;4.80;;;;;;5049091;28;20424;-71
2023/03/16 00:28:20;;;;;;;21.57;13.73;;;2.70;2.40;;;;;;5039402;28;20423;-70
2023/03/16 00:30:47;;;;;;;17.47;12.10;;;2.20;2.00;;;;;;5043087;28;20477;-71
2023/03/16 00:33:12;;;;;;;18.83;12.30;;;2.20;2.00;;;;;;5049223;28;20427;-70
2023/03/16 00:35:38;;;;;;;20.90;13.27;;;2.20;3.40;;;;;;5047191;28;20802;-69
2023/03/16 00:38:03;;;;;;;24.27;13.00;;;2.20;5.80;;;;;;5039524;28;20410;-70
2023/03/16 00:40:29;;;;;;;19.97;11.87;;;2.20;5.20;;;;;;5047789;28;20221;-71
2023/03/16 00:42:55;;;;;;;23.43;13.27;;;2.30;3.60;;;;;;5041181;28;20184;-70
2023/03/16 00:45:22;;;;;;;21.17;13.13;;;2.30;4.30;;;;;;5039848;28;20703;-70
2023/03/16 00:47:48;;;;;;;19.33;12.77;;;2.30;5.30;;;;;;5048419;28;20454;-71
2023/03/16 00:50:14;;;;;;;21.67;13.27;;;2.30;5.20;;;;;;5049011;28;20467;-72
2023/03/16 00:52:41;;;;;;;24.40;14.93;;;2.30;4.40;;;;;;5040044;28;20509;-71
2023/03/16 00:55:07;;;;;;;29.60;17.47;;;2.40;5.20;;;;;;5036072;28;20223;-70
2023/03/16 00:57:33;;;;;;;28.60;17.30;;;2.40;4.80;;;;;;5047407;28;20474;-70
2023/03/16 00:59:58;;;;;;;30.30;17.13;;;2.40;4.50;;;;;;5048878;28;20482;-71
2023/03/16 01:02:24;;;;;;;28.00;16.93;;;2.40;2.90;;;;;;5050619;28;20197;-70
2023/03/16 01:04:53;;;;;;;31.70;18.47;;;2.30;1.10;;;;;;5050376;28;20208;-70
2023/03/16 01:07:19;;;;;;;26.87;16.43;;;2.60;2.40;;;;;;5045640;28;20263;-70
2023/03/16 01:09:45;;;;;;;24.80;14.93;;;2.30;3.40;;;;;;5054999;28;20451;-71
2023/03/16 01:12:14;;;;;;;24.37;14.93;;;2.30;5.90;;;;;;5049022;28;20796;-70
2023/03/16 01:14:41;;;;;;;31.80;17.70;;;2.30;9.10;;;;;;5047847;28;20189;-71
2023/03/16 01:17:08;;;;;;;32.63;19.10;;;2.40;8.30;;;;;;5045478;28;20467;-70
2023/03/16 01:19:37;;;;;;;30.60;18.30;;;2.40;9.00;;;;;;5044507;28;20444;-71
2023/03/16 01:22:08;;;;;;;36.30;18.90;;;2.50;9.70;;;;;;5044378;28;20921;-70
2023/03/16 01:24:34;;;;;;;28.87;17.07;;;2.50;9.70;;;;;;5049128;28;21003;-71
2023/03/16 01:27:00;;;;;;;36.03;17.77;;;2.50;7.90;;;;;;5033808;28;20460;-71
2023/03/16 01:29:25;;;;;;;30.60;18.50;;;2.50;7.00;;;;;;5042308;28;20718;-70
2023/03/16 01:31:51;;;;;;;28.00;16.40;;;2.50;6.90;;;;;;5047253;28;20192;-70
2023/03/16 01:34:17;;;;;;;25.43;15.80;;;2.50;6.40;;;;;;5048090;28;20192;-71
2023/03/16 01:36:46;;;;;;;29.00;17.37;;;2.60;6.20;;;;;;5039358;28;20213;-71
2023/03/16 01:39:12;;;;;;;31.47;19.33;;;2.60;7.90;;;;;;5036918;28;20432;-70
2023/03/16 01:41:40;;;;;;;29.27;15.87;;;2.60;7.90;;;;;;5043176;28;20448;-70
2023/03/16 01:44:05;;;;;;;21.20;13.97;;;2.50;9.00;;;;;;5041481;28;20472;-70
2023/03/16 01:46:31;;;;;;;24.30;14.47;;;2.60;8.40;;;;;;5042449;28;20493;-70
2023/03/16 01:49:04;;;;;;;23.60;16.37;;;2.60;7.30;;;;;;5048518;28;20680;-71
2023/03/16 01:51:46;;;;;;;42.37;22.07;;;2.60;7.90;;;;;;5042890;28;20223;-70
2023/03/16 01:54:19;;;;;;;31.17;18.17;;;2.60;7.00;;;;;;5038553;28;20446;-70
2023/03/16 01:56:51;;;;;;;35.57;19.47;;;2.60;6.70;;;;;;5048431;28;20444;-70
2023/03/16 01:59:21;;;;;;;34.23;19.20;;;2.60;6.60;;;;;;5040997;28;20462;-69
2023/03/16 02:01:47;;;;;;;29.40;18.37;;;2.60;8.00;;;;;;5045445;28;20444;-70
2023/03/16 02:04:25;;;;;;;24.47;15.87;;;2.60;7.50;;;;;;5051461;28;20554;-70
2023/03/16 02:06:53;;;;;;;20.80;13.90;;;2.60;9.10;;;;;;5052930;28;20482;-71
2023/03/16 02:09:19;;;;;;;19.17;13.30;;;2.60;9.60;;;;;;5050296;28;20533;-71
2023/03/16 02:11:46;;;;;;;20.53;13.47;;;2.60;10.10;;;;;;5050144;28;20444;-70
2023/03/16 02:14:11;;;;;;;23.50;13.00;;;3.20;11.10;;;;;;5053892;28;20188;-71
2023/03/16 02:16:38;;;;;;;22.80;13.93;;;3.10;10.30;;;;;;5054511;28;20467;-70
2023/03/16 02:19:10;;;;;;;22.13;14.43;;;2.70;9.50;;;;;;5055815;28;20268;-71
2023/03/16 02:21:57;;;;;;;18.90;12.80;;;2.70;9.40;;;;;;5056039;28;20431;-69
2023/03/16 02:24:22;;;;;;;20.07;12.80;;;2.70;9.40;;;;;;5050189;28;20467;-71
2023/03/16 02:26:55;;;;;;;21.00;12.57;;;2.70;8.40;;;;;;5055952;28;20459;-71
2023/03/16 02:30:01;;;;;;;17.87;12.13;;;2.80;9.10;;;;;;5051401;28;20278;-71
2023/03/16 02:32:29;;;;;;;22.40;13.63;;;2.70;8.60;;;;;;5061182;28;20485;-70
2023/03/16 02:34:55;;;;;;;19.50;12.90;;;2.70;7.50;;;;;;5052723;28;20478;-70
2023/03/16 02:37:21;;;;;;;22.63;12.57;;;2.70;7.80;;;;;;5059101;28;20456;-72
2023/03/16 02:39:47;;;;;;;22.20;13.33;;;2.70;7.70;;;;;;5052565;28;20541;-70
2023/03/16 02:42:17;;;;;;;23.67;12.13;;;2.70;7.10;;;;;;5046693;28;20366;-70
2023/03/16 02:44:47;;;;;;;21.23;13.40;;;2.70;8.10;;;;;;5038011;28;20575;-71
2023/03/16 02:47:28;;;;;;;20.53;12.80;;;2.70;7.30;;;;;;5053378;28;20830;-71
2023/03/16 02:49:54;;;;;;;18.20;11.87;;;2.70;7.30;;;;;;5045617;28;20460;-71
2023/03/16 02:52:19;;;;;;;22.93;13.30;;;2.70;7.10;;;;;;5049628;28;20612;-70
2023/03/16 02:54:45;;;;;;;18.07;12.00;;;2.70;6.90;;;;;;5055084;28;20607;-71
2023/03/16 02:57:10;;;;;;;17.90;11.73;;;2.70;5.10;;;;;;5050643;28;20204;-71
2023/03/16 02:59:36;;;;;;;18.17;12.23;;;2.70;5.30;;;;;;5053754;28;20201;-70
2023/03/16 03:02:02;;;;;;;19.37;12.73;;;2.70;4.60;;;;;;5048700;28;20189;-71
2023/03/16 03:04:27;;;;;;;17.47;11.03;;;2.70;4.50;;;;;;5049420;28;20216;-70
2023/03/16 03:06:53;;;;;;;16.07;10.47;;;2.70;4.40;;;;;;5051615;28;20217;-71
2023/03/16 03:09:19;;;;;;;16.43;11.03;;;2.80;3.70;;;;;;5050856;28;20596;-68
2023/03/16 03:11:45;;;;;;;19.20;11.20;;;2.80;3.70;;;;;;5043650;28;20173;-72
2023/03/16 03:14:11;;;;;;;18.83;11.00;;;2.80;2.90;;;;;;5052803;28;20498;-72
2023/03/16 03:16:37;;;;;;;16.13;10.90;;;2.80;2.00;;;;;;5048542;28;20477;-71
2023/03/16 03:19:02;;;;;;;16.83;10.87;;;2.90;1.00;;;;;;5037693;28;20439;-70
2023/03/16 03:21:28;;;;;;;13.20;9.87;;;2.80;1.00;;;;;;5049691;28;20209;-70
2023/03/16 03:23:53;;;;;;;17.00;10.30;;;3.30;1.00;;;;;;5047799;28;20220;-71
2023/03/16 03:26:20;;;;;;;14.80;9.73;;;3.00;1.00;;;;;;5054756;28;20218;-68
2023/03/16 03:28:46;;;;;;;14.10;9.33;;;3.00;1.00;;;;;;5055594;28;20269;-70
2023/03/16 03:31:17;;;;;;;12.60;9.10;;;2.60;1.00;;;;;;5043710;28;20436;-71
2023/03/16 03:33:43;;;;;;;12.40;8.53;;;3.10;1.00;;;;;;5048412;28;20448;-70
2023/03/16 03:36:10;;;;;;;12.87;8.93;;;3.10;1.00;;;;;;5048915;28;20557;-71
2023/03/16 03:38:36;;;;;;;12.57;8.43;;;3.10;1.00;;;;;;5047383;28;20451;-70
2023/03/16 03:41:01;;;;;;;14.57;9.90;;;3.10;1.00;;;;;;5051858;28;20455;-71
2023/03/16 03:43:27;;;;;;;12.27;8.60;;;3.00;1.00;;;;;;5040892;28;20212;-71
2023/03/16 03:46:00;;;;;;;11.40;8.40;;;3.00;1.00;;;;;;5044484;28;20182;-71
2023/03/16 03:48:26;;;;;;;12.30;8.10;;;3.00;1.00;;;;;;5050727;28;20607;-70
2023/03/16 03:50:52;;;;;;;16.53;9.77;;;3.00;1.00;;;;;;5051921;28;20440;-70
2023/03/16 03:53:18;;;;;;;13.97;9.33;;;2.90;1.00;;;;;;5050868;28;20813;-71
2023/03/16 03:55:43;;;;;;;11.90;8.37;;;2.80;1.00;;;;;;5049071;28;20216;-71
2023/03/16 03:58:10;;;;;;;15.40;9.57;;;2.80;1.00;;;;;;5048394;28;20533;-71
2023/03/16 04:00:36;;;;;;;15.30;8.97;;;2.80;1.00;;;;;;5048351;28;20193;-71
2023/03/16 04:03:02;;;;;;;12.93;9.33;;;2.80;1.00;;;;;;5043923;28;20428;-71
2023/03/16 04:05:28;;;;;;;14.03;8.40;;;2.70;1.00;;;;;;5037570;28;20466;-72
2023/03/16 04:07:56;;;;;;;14.50;9.50;;;2.70;1.00;;;;;;5050110;28;20200;-70
2023/03/16 04:10:26;;;;;;;13.13;8.57;;;2.60;1.00;;;;;;5048911;28;20200;-67
2023/03/16 04:12:51;;;;;;;16.90;9.63;;;2.50;1.00;;;;;;5043209;28;20818;-70
2023/03/16 04:15:17;;;;;;;13.43;9.03;;;2.40;1.00;;;;;;5046597;28;20527;-71
2023/03/16 04:17:43;;;;;;;13.90;9.53;;;2.70;1.00;;;;;;5035463;28;20208;-70
2023/03/16 04:20:13;;;;;;;14.37;9.03;;;2.40;1.00;;;;;;5047910;28;20447;-72
2023/03/16 04:22:41;;;;;;;13.30;9.20;;;2.30;1.00;;;;;;5048352;28;20181;-70
2023/03/16 04:25:08;;;;;;;14.47;9.80;;;2.30;1.00;;;;;;5050970;28;20459;-71
2023/03/16 04:27:35;;;;;;;16.30;9.80;;;2.30;1.00;;;;;;5050569;28;20455;-71
2023/03/16 04:30:07;;;;;;;15.17;9.83;;;2.30;1.00;;;;;;5049461;28;20461;-71
2023/03/16 04:32:33;;;;;;;15.97;9.93;;;2.30;1.00;;;;;;5040858;28;20467;-71
2023/03/16 04:34:59;;;;;;;15.90;10.00;;;2.30;1.00;;;;;;5052406;28;20438;-71
2023/03/16 04:37:25;;;;;;;15.00;9.27;;;;;;;;;;5045446;28;20212;-70
2023/03/16 04:39:51;;;;;;;15.07;10.23;;;;;;;;;;5050401;28;20196;-71
2023/03/16 04:42:17;;;;;;;15.00;9.93;;;2.30;1.00;;;;;;5051293;28;20444;-71
2023/03/16 04:44:45;;;;;;;13.83;9.40;;;2.30;1.00;;;;;;5053191;28;20490;-70
2023/03/16 04:47:12;;;;;;;16.80;9.40;;;2.60;1.00;;;;;;5044120;28;20475;-70
2023/03/16 04:49:38;;;;;;;12.77;9.10;;;2.30;1.00;;;;;;5049008;28;20424;-70
2023/03/16 04:52:04;;;;;;;15.97;10.37;;;2.30;1.00;;;;;;5047140;28;20538;-71
2023/03/16 04:54:30;;;;;;;17.00;9.63;;;2.30;1.00;;;;;;5045895;28;20598;-69
2023/03/16 04:56:56;;;;;;;15.00;9.13;;;2.30;1.00;;;;;;5041091;28;20524;-70
2023/03/16 04:59:21;;;;;;;16.10;10.13;;;2.30;1.00;;;;;;5038843;28;20428;-70
2023/03/16 05:01:47;;;;;;;14.27;9.97;;;2.30;1.00;;;;;;5050947;28;20177;-70
2023/03/16 05:04:13;;;;;;;17.57;10.90;;;2.30;1.00;;;;;;5049656;28;20228;-70
2023/03/16 05:06:39;;;;;;;17.73;10.80;;;2.30;1.00;;;;;;5048837;28;21050;-70
2023/03/16 05:09:07;;;;;;;16.60;10.20;;;2.30;1.00;;;;;;5050343;28;20197;-70
2023/03/16 05:11:34;;;;;;;14.53;10.20;;;2.20;1.00;;;;;;5047449;28;20272;-70
2023/03/16 05:14:00;;;;;;;18.40;11.30;;;2.20;1.00;;;;;;5044867;28;20504;-70
2023/03/16 05:16:26;;;;;;;16.97;10.23;;;2.20;1.00;;;;;;5040664;28;20502;-67
2023/03/16 05:18:52;;;;;;;20.13;10.90;;;2.30;1.00;;;;;;5048933;28;20451;-70
2023/03/16 05:21:17;;;;;;;16.40;10.57;;;2.30;1.00;;;;;;5045878;28;20460;-70
2023/03/16 05:23:43;;;;;;;14.63;9.80;;;2.30;1.00;;;;;;5055344;28;20208;-70
2023/03/16 05:26:09;;;;;;;16.10;9.30;;;2.30;1.00;;;;;;5045600;28;20303;-70
2023/03/16 05:28:34;;;;;;;18.03;9.53;;;2.30;1.00;;;;;;5048528;28;20177;-70
2023/03/16 05:31:02;;;;;;;14.33;9.27;;;2.50;1.00;;;;;;5045152;28;20670;-72
2023/03/16 05:33:28;;;;;;;15.47;9.30;;;2.50;1.00;;;;;;5046668;28;20177;-69
2023/03/16 05:35:53;;;;;;;14.00;9.40;;;2.30;1.00;;;;;;5036760;28;20778;-70
2023/03/16 05:38:19;;;;;;;14.57;9.87;;;2.30;1.00;;;;;;5046517;28;20564;-70
2023/03/16 05:40:45;;;;;;;16.30;9.70;;;2.30;1.00;;;;;;5039366;28;20196;-70
2023/03/16 05:43:10;;;;;;;13.53;9.60;;;2.30;1.00;;;;;;5054569;28;20205;-72
2023/03/16 05:45:36;;;;;;;16.53;10.80;;;2.40;1.00;;;;;;5036558;28;20188;-68
2023/03/16 05:48:04;;;;;;;14.77;9.00;;;2.80;1.00;;;;;;5048472;28;20197;-70
2023/03/16 05:50:30;;;;;;;15.23;9.90;;;2.40;1.00;;;;;;5045664;28;20235;-71
2023/03/16 05:52:55;;;;;;;15.53;9.40;;;2.40;1.00;;;;;;5044614;28;20466;-70
2023/03/16 05:55:21;;;;;;;13.03;8.20;;;2.40;1.00;;;;;;5042967;28;20216;-72
2023/03/16 05:57:46;;;;;;;15.03;9.10;;;2.50;1.00;;;;;;5047141;28;20201;-70
2023/03/16 06:00:14;;;;;;;14.37;9.50;;;2.50;1.00;;;;;;5048243;28;20235;-70
2023/03/16 06:02:48;;;;;;;13.90;9.40;;;2.50;1.00;;;;;;5053454;28;20406;-70
2023/03/16 06:05:15;;;;;;;13.83;9.07;;;2.10;1.00;;;;;;5042190;28;20466;-71
2023/03/16 06:07:41;;;;;;;16.27;10.17;;;2.50;1.00;;;;;;5044484;28;20474;-71
2023/03/16 06:10:07;;;;;;;14.10;8.70;;;2.60;1.00;;;;;;5042858;28;20428;-70
2023/03/16 06:12:35;;;;;;;13.17;9.00;;;2.60;1.00;;;;;;5050179;28;20666;-70
2023/03/16 06:15:02;;;;;;;13.77;8.83;;;2.60;1.00;;;;;;5038542;28;20432;-70
2023/03/16 06:17:28;;;;;;;13.00;9.20;;;2.60;1.00;;;;;;5052757;28;20463;-70
2023/03/16 06:19:53;;;;;;;13.30;8.87;;;2.70;1.00;;;;;;5046545;28;20446;-70
2023/03/16 06:22:19;;;;;;;15.10;8.87;;;2.70;1.00;;;;;;5047772;28;20185;-70
2023/03/16 06:24:44;;;;;;;13.23;9.67;;;2.20;1.00;;;;;;5035252;28;20691;-71
2023/03/16 06:27:10;;;;;;;13.63;8.60;;;2.70;1.00;;;;;;5038403;28;20233;-70
2023/03/16 06:29:36;;;;;;;13.13;8.50;;;2.80;1.00;;;;;;5046986;28;20264;-69
2023/03/16 06:32:01;;;;;;;12.90;8.17;;;2.90;1.00;;;;;;5040974;28;20176;-70
2023/03/16 06:34:27;;;;;;;14.97;9.00;;;2.80;1.00;;;;;;5046048;28;20178;-69
2023/03/16 06:36:52;;;;;;;15.70;9.70;;;3.10;1.00;;;;;;5040388;28;20451;-69
2023/03/16 06:39:18;;;;;;;12.27;8.20;;;3.00;1.00;;;;;;5041430;28;20182;-67
2023/03/16 06:41:43;;;;;;;13.67;9.23;;;3.10;1.00;;;;;;5041236;28;20185;-71
2023/03/16 06:44:10;;;;;;;12.70;9.10;;;3.20;1.00;;;;;;5052284;28;20204;-70
2023/03/16 06:46:36;;;;;;;14.20;9.20;;;3.60;1.00;;;;;;5043089;28;20197;-72
2023/03/16 06:49:03;;;;;;;12.77;8.53;;;3.70;1.00;;;;;;5048307;28;20836;-70
2023/03/16 06:51:30;;;;;;;16.80;9.33;;;4.30;1.00;;;;;;5041680;28;20230;-71
2023/03/16 06:53:56;;;;;;;11.40;8.63;;;4.50;1.00;;;;;;5049808;28;20439;-70
2023/03/16 06:56:21;;;;;;;14.93;9.57;;;4.30;1.00;;;;;;5038867;28;20460;-70
2023/03/16 06:58:47;;;;;;;13.80;9.10;;;3.90;1.00;;;;;;5046901;28;20651;-70
2023/03/16 07:01:12;;;;;;;12.60;8.60;;;3.70;1.00;;;;;;5040186;28;20181;-71
2023/03/16 07:03:38;;;;;;;13.30;8.63;;;3.70;1.00;;;;;;5047480;28;20215;-70
2023/03/16 07:06:04;;;;;;;12.37;8.77;;;3.80;1.00;;;;;;5049025;28;20204;-70
2023/03/16 07:08:30;;;;;;;13.80;8.90;;;3.80;1.00;;;;;;5046319;28;20177;-70
2023/03/16 07:10:56;;;;;;;13.00;8.83;;;;;;;;;;5046697;28;20490;-70
2023/03/16 07:13:22;;;;;;;12.70;8.40;;;4.20;1.00;;;;;;5052740;28;20235;-70
2023/03/16 07:15:51;;;;;;;12.63;8.80;;;4.50;1.00;;;;;;5051432;28;20570;-70
2023/03/16 07:18:17;;;;;;;15.67;9.20;;;4.50;1.00;;;;;;5042751;28;20443;-70
2023/03/16 07:20:43;;;;;;;14.10;8.77;;;4.50;1.00;;;;;;5048337;28;20451;-70
2023/03/16 07:23:09;;;;;;;13.03;8.63;;;4.40;1.00;;;;;;5049451;28;20853;-70
2023/03/16 07:25:35;;;;;;;10.90;7.90;;;;;;;;;;5048313;28;20240;-70
2023/03/16 07:28:02;;;;;;;12.33;8.70;;;4.40;1.00;;;;;;5048470;28;20563;-70
2023/03/16 07:30:27;;;;;;;13.10;9.00;;;4.40;1.00;;;;;;5043406;28;20758;-70
2023/03/16 07:32:53;;;;;;;12.53;8.47;;;4.30;1.00;;;;;;5046931;28;20436;-71
2023/03/16 07:35:19;;;;;;;12.13;8.63;;;4.30;1.00;;;;;;5051679;28;20234;-70
2023/03/16 07:37:45;;;;;;;13.60;8.47;;;;;;;;;;5046823;28;20638;-70
2023/03/16 07:40:11;;;;;;;11.67;8.53;;;4.40;1.00;;;;;;5052560;28;20721;-71
2023/03/16 07:42:36;;;;;;;12.77;8.80;;;4.50;1.00;;;;;;5053120;28;20632;-71
2023/03/16 07:45:03;;;;;;;11.68;8.52;;;4.50;1.00;;;;;;5046308;28;20346;-70
2023/03/16 07:47:30;;;;;;;12.32;9.13;;;4.60;1.00;;;;;;5062120;28;20584;-70
2023/03/16 07:49:56;;;;;;;12.83;9.37;;;4.70;1.00;;;;;;5053505;28;20169;-70
2023/03/16 07:52:22;;;;;;;11.93;9.27;;;4.80;1.00;;;;;;5049519;28;20896;-71
2023/03/16 07:54:48;;;;;;;13.77;8.73;;;4.80;1.00;;;;;;5032150;28;20196;-71
2023/03/16 07:57:14;;;;;;;11.73;7.60;;;4.90;1.00;;;;;;5038069;28;20452;-70
2023/03/16 07:59:40;;;;;;;12.80;8.93;;;4.90;1.00;;;;;;5036031;28;20536;-71
2023/03/16 08:02:11;;;;;;;12.00;8.10;;;4.90;1.00;;;;;;5042714;28;20320;-69
2023/03/16 08:04:36;;;;;;;12.13;7.90;;;4.90;1.00;;;;;;5036134;28;20474;-68
2023/03/16 08:07:02;;;;;;;14.70;7.50;;;5.00;1.00;;;;;;5049678;28;20448;-68
2023/03/16 08:09:27;;;;;;;11.30;8.10;;;5.00;1.00;;;;;;5048188;28;20501;-70
2023/03/16 08:11:53;;;;;;;11.47;8.60;;;5.00;1.00;;;;;;5047452;28;20189;-68
2023/03/16 08:14:19;;;;;;;12.13;8.70;;;5.20;1.00;;;;;;5053033;28;20188;-68
2023/03/16 08:16:44;;;;;;;10.10;8.17;;;5.30;1.00;;;;;;5040329;28;20272;-69
2023/03/16 08:19:10;;;;;;;11.37;8.40;;;5.40;1.00;;;;;;5049468;28;20734;-69
2023/03/16 08:21:36;;;;;;;12.40;8.80;;;5.40;1.00;;;;;;5040571;28;21908;-68
2023/03/16 08:24:01;;;;;;;11.37;8.20;;;5.50;1.00;;;;;;5041146;28;20559;-69
2023/03/16 08:26:27;;;;;;;14.90;8.03;;;6.00;1.00;;;;;;5053209;28;20713;-70
2023/03/16 08:28:53;;;;;;;13.20;8.63;;;5.80;1.00;;;;;;5047273;28;20174;-70
2023/03/16 08:31:19;;;;;;;13.43;8.20;;;5.90;1.00;;;;;;5056921;28;20177;-70
2023/03/16 08:33:46;;;;;;;11.90;7.70;;;6.00;1.00;;;;;;5048046;28;20229;-70
2023/03/16 08:36:14;;;;;;;10.37;7.80;;;6.10;1.00;;;;;;5044847;28;20546;-67
2023/03/16 08:38:41;;;;;;;11.10;7.50;;;6.30;1.00;;;;;;5049839;28;20451;-68
2023/03/16 08:41:07;;;;;;;11.43;7.70;;;6.90;1.00;;;;;;5047972;28;20436;-69
2023/03/16 08:43:34;;;;;;;10.43;7.33;;;8.30;1.00;;;;;;5039257;28;20468;-68
2023/03/16 08:46:00;;;;;;;11.70;8.27;;;10.20;1.00;;;;;;5048677;28;20431;-71
2023/03/16 08:48:27;;;;;;;9.47;7.80;;;11.40;1.00;;;;;;5049483;28;20440;-71
2023/03/16 08:50:54;;;;;;;9.93;7.47;;;12.40;1.00;;;;;;5048512;28;20420;-67
2023/03/16 08:53:20;;;;;;;10.20;7.50;;;13.50;1.00;;;;;;5058502;28;20523;-70
2023/03/16 08:55:45;;;;;;;8.77;7.60;;;14.20;1.00;;;;;;5044079;28;20481;-70
2023/03/16 08:58:12;;;;;;;9.63;7.20;;;14.70;1.00;;;;;;5041383;28;20685;-68
2023/03/16 09:00:39;;;;;;;8.80;7.40;;;14.50;1.00;;;;;;5046923;28;20172;-69
2023/03/16 09:03:05;;;;;;;10.77;8.63;;;14.60;1.00;;;;;;5039920;28;20494;-72
2023/03/16 09:05:31;;;;;;;9.60;8.27;;;14.00;1.00;;;;;;5046701;28;20419;-71
2023/03/16 09:07:57;;;;;;;11.50;8.50;;;13.10;1.00;;;;;;5034779;28;20452;-72
2023/03/16 09:10:24;;;;;;;11.53;8.07;;;12.70;1.00;;;;;;5044933;28;20494;-71
2023/03/16 09:12:51;;;;;;;16.07;8.67;;;13.10;1.00;;;;;;5042365;28;20431;-72
2023/03/16 09:15:19;;;;;;;9.93;7.57;;;14.30;1.00;;;;;;5053898;28;20440;-72
2023/03/16 09:17:45;;;;;;;10.17;8.70;;;15.30;1.00;;;;;;5047741;28;20552;-73
2023/03/16 09:20:12;;;;;;;11.30;9.70;;;16.20;1.00;;;;;;5045024;28;20433;-72
2023/03/16 09:22:39;;;;;;;11.70;9.37;;;16.60;1.00;;;;;;5043112;28;20423;-72
2023/03/16 09:25:05;;;;;;;11.40;9.43;;;16.60;1.00;;;;;;5035371;28;20466;-71
2023/03/16 09:27:32;;;;;;;11.50;10.00;;;17.00;1.00;;;;;;5032176;28;20974;-72
2023/03/16 09:29:59;;;;;;;10.87;9.23;;;17.10;1.00;;;;;;5039098;28;20443;-71
2023/03/16 09:32:27;;;;;;;12.07;9.10;;;17.00;1.00;;;;;;5048607;28;20983;-70
2023/03/16 09:34:53;;;;;;;9.50;8.33;;;17.60;1.00;;;;;;5037882;28;20787;-73
2023/03/16 09:37:19;;;;;;;11.23;8.87;;;18.50;1.00;;;;;;5039728;28;20649;-72
2023/03/16 09:39:46;;;;;;;11.40;8.40;;;19.40;1.00;;;;;;5042565;28;20546;-72
2023/03/16 09:42:29;;;;;;;10.60;8.50;;;19.70;1.00;;;;;;5048850;28;20181;-71
2023/03/16 09:45:15;;;;;;;9.33;8.07;;;20.00;1.00;;;;;;5044640;28;20832;-72
2023/03/16 09:47:43;;;;;;;8.80;7.70;;;19.80;1.00;;;;;;5045844;28;20442;-67
2023/03/16 09:50:19;;;;;;;9.97;8.27;;;19.10;1.00;;;;;;5042178;28;20573;-72
2023/03/16 09:52:56;;;;;;;9.20;7.97;;;17.80;1.00;;;;;;5038483;28;20424;-70
2023/03/16 09:55:33;;;;;;;8.63;7.67;;;17.50;1.00;;;;;;5039787;28;20467;-72
2023/03/16 09:58:03;;;;;;;10.00;8.20;;;16.00;1.00;;;;;;5047923;28;20446;-72
2023/03/16 10:00:54;;;;;;;9.13;7.90;;;15.60;1.00;;;;;;5057208;28;20973;-71
2023/03/16 10:03:59;;;;;;;8.53;7.60;;;15.10;1.00;;;;;;5039885;28;20479;-71
2023/03/16 10:06:25;;;;;;;7.27;6.50;;;14.70;1.00;;;;;;5055205;28;20551;-71
2023/03/16 10:09:29;;;;;;;7.63;6.70;;;14.60;1.00;;;;;;5038323;28;20557;-71
2023/03/16 10:11:57;;;;;;;7.93;6.80;;;15.50;1.00;;;;;;5043881;28;20941;-71
2023/03/16 10:14:32;;;;;;;7.97;6.70;;;16.50;1.00;;;;;;5050027;28;20435;-71
2023/03/16 10:17:01;;;;;;;9.43;7.63;;;17.40;1.00;;;;;;5049839;28;20554;-71
2023/03/16 10:19:46;;;;;;;9.80;7.87;;;18.20;1.00;;;;;;5039776;28;20475;-70
2023/03/16 10:22:33;;;;;;;11.20;8.50;;;18.80;1.00;;;;;;5042374;28;20439;-71
2023/03/16 10:25:25;;;;;;;12.23;8.47;;;18.80;1.00;;;;;;5045194;28;20558;-70
2023/03/16 10:27:51;;;;;;;10.40;8.03;;;19.60;1.00;;;;;;5060424;28;20482;-72
2023/03/16 10:30:29;;;;;;;11.13;8.00;;;20.30;1.00;;;;;;5045611;28;20721;-72
2023/03/16 10:32:59;;;;;;;8.80;7.83;;;19.90;1.00;;;;;;5039938;28;20470;-72
2023/03/16 10:35:36;;;;;;;10.40;8.40;;;19.90;1.00;;;;;;5043206;28;20452;-73
2023/03/16 10:38:02;;;;;;;10.20;8.70;;;21.10;1.00;;;;;;5039850;28;20462;-72
2023/03/16 10:40:36;;;;;;;11.30;8.17;;;21.30;1.00;;;;;;5039155;28;20500;-71
2023/03/16 10:43:28;;;;;;;10.27;8.60;;;22.70;1.00;;;;;;5047543;28;20423;-71
2023/03/16 10:46:00;;;;;;;11.67;8.37;;;22.70;1.00;;;;;;5041903;28;20526;-72
2023/03/16 10:48:27;;;;;;;9.00;7.57;;;22.30;1.00;;;;;;5044684;28;20521;-72
2023/03/16 10:50:56;;;;;;;10.63;7.70;;;22.30;1.00;;;;;;5050132;28;20944;-73
2023/03/16 10:53:29;;;;;;;9.33;8.10;;;23.70;1.00;;;;;;5036678;28;20432;-72
2023/03/16 10:56:10;;;;;;;9.30;7.50;;;23.70;1.00;;;;;;5033929;28;20846;-69
2023/03/16 10:58:41;;;;;;;9.60;7.53;;;23.20;1.00;;;;;;5044596;28;20434;-73
2023/03/16 11:01:20;;;;;;;10.30;8.10;;;23.10;1.00;;;;;;5046622;28;20209;-69
2023/03/16 11:03:54;;;;;;;8.90;7.90;;;21.90;1.00;;;;;;5036236;28;20506;-69
2023/03/16 11:06:31;;;;;;;9.23;7.70;;;21.20;1.00;;;;;;5045608;28;20450;-69
2023/03/16 11:09:13;;;;;;;11.60;7.87;;;20.40;1.00;;;;;;5048626;28;20438;-71
2023/03/16 11:11:45;;;;;;;10.30;7.33;;;20.70;1.00;;;;;;5043686;28;21009;-69
2023/03/16 11:14:14;;;;;;;10.70;7.70;;;21.00;1.00;;;;;;5048955;28;20500;-72
2023/03/16 11:16:56;;;;;;;10.63;8.60;;;21.90;1.00;;;;;;5042540;28;20470;-68
2023/03/16 11:19:29;;;;;;;10.20;8.30;;;22.70;1.00;;;;;;5040841;28;20473;-72
2023/03/16 11:22:16;;;;;;;10.90;8.53;;;23.40;1.00;;;;;;5049332;28;20438;-71
2023/03/16 11:24:59;;;;;;;10.60;7.70;;;24.40;1.00;;;;;;5044537;28;20474;-69
2023/03/16 11:28:10;;;;;;;8.67;7.77;;;24.30;1.00;;;;;;5061571;28;20960;-72
2023/03/16 11:30:39;;;;;;;9.50;7.90;;;22.80;1.00;;;;;;5047412;28;20892;-69
2023/03/16 11:33:09;;;;;;;9.50;8.03;;;21.00;1.00;;;;;;5050647;28;20997;-73
2023/03/16 11:35:52;;;;;;;9.77;8.00;;;21.30;1.00;;;;;;5040070;28;20515;-71
2023/03/16 11:38:20;;;;;;;10.70;7.93;;;20.30;1.00;;;;;;5046756;28;20461;-72
2023/03/16 11:41:09;;;;;;;10.00;8.40;;;20.20;1.00;;;;;;5055038;28;20442;-71
2023/03/16 11:43:55;;;;;;;10.63;9.20;;;20.20;1.00;;;;;;5038902;28;20537;-71
2023/03/16 11:46:41;;;;;;;12.10;8.60;;;19.50;1.00;;;;;;5035603;28;20470;-71
2023/03/16 11:49:37;;;;;;;17.07;8.87;;;20.00;1.00;;;;;;5042576;28;20458;-69
2023/03/16 11:52:02;;;;;;;10.70;8.40;;;19.90;1.00;;;;;;5038385;28;20436;-70
2023/03/16 11:54:43;;;;;;;12.20;8.80;;;19.30;1.00;;;;;;5045019;28;20451;-69
2023/03/16 11:57:40;;;;;;;11.10;7.97;;;18.90;1.00;;;;;;5042525;28;20209;-69
2023/03/16 12:00:11;;;;;;;11.93;8.00;;;18.80;1.00;;;;;;5044444;28;20971;-71
2023/03/16 12:02:54;;;;;;;10.93;8.00;;;19.00;1.00;;;;;;5064312;28;20957;-71
2023/03/16 12:05:52;;;;;;;11.30;8.23;;;18.80;1.00;;;;;;5043852;28;20474;-73
2023/03/16 12:08:30;;;;;;;9.57;7.30;;;18.70;1.00;;;;;;5044123;28;20443;-70
2023/03/16 12:11:02;;;;;;;11.37;7.33;;;18.20;1.00;;;;;;5046644;28;20527;-72
2023/03/16 12:13:33;;;;;;;9.20;7.20;;;18.90;1.00;;;;;;5055342;28;20446;-69
2023/03/16 12:16:14;;;;;;;8.67;6.33;;;20.10;1.00;;;;;;5040460;28;20495;-68
2023/03/16 12:18:59;;;;;;;9.53;7.07;;;20.80;1.00;;;;;;5050713;28;20447;-71
2023/03/16 12:21:39;;;;;;;9.30;7.30;;;22.00;1.00;;;;;;5044889;28;20458;-70
2023/03/16 12:24:10;;;;;;;7.97;6.23;;;22.90;1.00;;;;;;5040741;28;21002;-71
2023/03/16 12:26:40;;;;;;;9.80;7.10;;;23.40;1.00;;;;;;5038114;28;20824;-72
2023/03/16 12:29:19;;;;;;;9.23;6.63;;;23.80;1.00;;;;;;5042414;28;20420;-72
2023/03/16 12:31:51;;;;;;;7.90;6.40;;;24.40;1.00;;;;;;5043881;28;20450;-72
2023/03/16 12:34:50;;;;;;;8.27;6.27;;;25.80;1.00;;;;;;5040634;28;20427;-71
2023/03/16 12:37:28;;;;;;;7.70;6.10;;;26.30;1.00;;;;;;5041798;28;20470;-72
2023/03/16 12:40:07;;;;;;;7.07;5.40;;;26.90;1.00;;;;;;5048537;28;20430;-72
2023/03/16 12:42:56;;;;;;;6.17;5.53;;;27.80;1.00;;;;;;5044659;28;20510;-72
2023/03/16 12:45:32;;;;;;;7.47;5.40;;;27.20;1.00;;;;;;5038935;28;20466;-72
2023/03/16 12:48:06;;;;;;;8.00;5.87;;;26.80;1.00;;;;;;5043645;28;20465;-72
2023/03/16 12:50:32;;;;;;;8.00;5.97;;;26.40;1.00;;;;;;5053287;28;20435;-72
2023/03/16 12:52:58;;;;;;;6.73;5.40;;;25.20;1.00;;;;;;5055967;28;21003;-72
2023/03/16 12:55:33;;;;;;;8.10;5.53;;;24.40;1.00;;;;;;5055021;28;20176;-73
2023/03/16 12:58:03;;;;;;;7.40;5.43;;;24.00;1.00;;;;;;5049197;28;20458;-72
2023/03/16 13:00:39;;;;;;;7.03;5.37;;;23.40;1.00;;;;;;5041878;28;20423;-72
2023/03/16 13:03:18;;;;;;;6.60;5.40;;;22.60;1.00;;;;;;5042673;28;20437;-70
2023/03/16 13:05:49;;;;;;;7.97;5.57;;;21.90;1.00;;;;;;5049878;28;20437;-71